createdAt,value
2019-02-16T00:01:08.438Z,70.26
2019-02-16T00:03:37.639Z,70.61
2019-02-16T00:06:06.923Z,70.66
2019-02-16T00:08:36.637Z,70.07
2019-02-16T00:11:08.277Z,70.57
2019-02-16T00:13:38.387Z,70.15
2019-02-16T00:16:08.345Z,70.40
2019-02-16T00:18:38.537Z,70.63
2019-02-16T00:21:07.752Z,70.60
2019-02-16T00:23:36.960Z,70.75
2019-02-16T00:26:07.211Z,71.82
2019-02-16T00:28:38.536Z,71.06
2019-02-16T00:31:07.717Z,70.50
2019-02-16T00:33:36.925Z,71.03
2019-02-16T00:36:06.106Z,70.79
2019-02-16T00:38:35.192Z,70.57
2019-02-16T00:41:05.381Z,70.29
2019-02-16T00:43:35.420Z,69.54
2019-02-16T00:46:04.650Z,69.94
2019-02-16T00:48:34.384Z,69.81
2019-02-16T00:51:12.887Z,70.33
2019-02-16T00:53:35.525Z,70.53
2019-02-16T00:56:05.539Z,70.76
2019-02-16T00:58:34.701Z,70.55
2019-02-16T01:01:03.913Z,71.10
2019-02-16T01:03:33.802Z,71.00
2019-02-16T01:06:03.731Z,70.81
2019-02-16T01:08:33.726Z,70.53
2019-02-16T01:11:02.935Z,70.51
2019-02-16T01:13:33.161Z,70.23
2019-02-16T01:16:02.283Z,70.52
2019-02-16T01:18:32.369Z,71.34
2019-02-16T01:21:01.581Z,71.80
2019-02-16T01:23:31.149Z,71.86
2019-02-16T01:26:01.630Z,72.01
2019-02-16T01:28:31.532Z,71.90
2019-02-16T01:31:01.051Z,70.80
2019-02-16T01:33:31.150Z,71.04
2019-02-16T01:36:01.281Z,70.93
2019-02-16T01:38:31.144Z,70.92
2019-02-16T01:41:01.250Z,71.51
2019-02-16T01:43:31.551Z,72.08
2019-02-16T01:46:01.224Z,72.08
2019-02-16T01:48:31.171Z,72.68
2019-02-16T01:51:01.186Z,72.45
2019-02-16T01:53:31.108Z,72.00
2019-02-16T01:56:01.078Z,72.47
2019-02-16T01:58:30.938Z,71.96
2019-02-16T02:01:01.427Z,72.05
2019-02-16T02:03:30.978Z,72.05
2019-02-16T02:06:00.334Z,72.18
2019-02-16T02:08:30.342Z,72.18
2019-02-16T02:11:00.197Z,73.30
2019-02-16T02:13:30.181Z,73.90
2019-02-16T02:16:00.319Z,73.90
2019-02-16T02:18:31.039Z,73.40
2019-02-16T02:21:00.781Z,73.30
2019-02-16T02:23:30.849Z,73.08
2019-02-16T02:26:00.080Z,71.99
2019-02-16T02:28:29.198Z,72.90
2019-02-16T02:30:58.365Z,73.04
2019-02-16T02:33:28.563Z,73.31
2019-02-16T02:35:58.703Z,72.26
2019-02-16T02:38:29.236Z,72.50
2019-02-16T02:40:59.523Z,72.90
2019-02-16T02:43:28.902Z,72.86
2019-02-16T02:45:58.289Z,73.30
2019-02-16T02:48:27.448Z,73.68
2019-02-16T02:50:56.854Z,71.89
2019-02-16T02:53:31.278Z,71.93
2019-02-16T02:55:59.002Z,71.97
2019-02-16T02:58:29.447Z,72.66
2019-02-16T03:00:59.637Z,73.80
2019-02-16T03:03:29.082Z,73.72
2019-02-16T03:05:58.589Z,74.84
2019-02-16T03:08:27.900Z,74.49
2019-02-16T03:10:58.088Z,73.15
2019-02-16T03:13:28.844Z,73.18
2019-02-16T03:15:59.032Z,72.87
2019-02-16T03:18:28.283Z,74.38
2019-02-16T03:20:58.337Z,74.60
2019-02-16T03:23:27.477Z,74.60
2019-02-16T03:25:58.963Z,73.80
2019-02-16T03:28:31.999Z,73.23
2019-02-16T03:31:35.169Z,74.19
2019-02-16T03:34:10.320Z,74.24
2019-02-16T03:37:04.949Z,74.24
2019-02-16T03:39:35.052Z,73.56
2019-02-16T03:42:05.249Z,73.67
2019-02-16T03:44:34.385Z,72.96
2019-02-16T03:47:04.953Z,72.54
2019-02-16T03:49:34.883Z,73.62
2019-02-16T03:52:13.256Z,73.53
2019-02-16T03:54:36.089Z,73.71
2019-02-16T03:57:05.929Z,73.52
2019-02-16T03:59:35.139Z,73.65
2019-02-16T04:02:04.600Z,74.40
2019-02-16T04:04:35.093Z,74.26
2019-02-16T04:07:05.072Z,74.25
2019-02-16T04:09:35.001Z,75.27
2019-02-16T04:12:04.167Z,75.50
2019-02-16T04:14:34.218Z,75.26
2019-02-16T04:17:04.213Z,74.95
2019-02-16T04:19:34.370Z,74.98
2019-02-16T04:22:04.791Z,75.99
2019-02-16T04:24:35.887Z,75.79
2019-02-16T04:27:06.279Z,76.83
2019-02-16T04:29:35.698Z,76.07
2019-02-16T04:32:05.677Z,75.96
2019-02-16T04:34:34.922Z,74.59
2019-02-16T04:37:04.127Z,74.59
2019-02-16T04:39:34.616Z,74.63
2019-02-16T04:42:05.596Z,74.73
2019-02-16T04:44:34.885Z,75.08
2019-02-16T04:47:04.089Z,75.86
2019-02-16T04:49:33.285Z,76.91
2019-02-16T04:52:02.483Z,76.26
2019-02-16T04:54:31.671Z,75.39
2019-02-16T04:57:01.845Z,74.64
2019-02-16T04:59:31.111Z,75.11
2019-02-16T05:02:02.541Z,75.02
2019-02-16T05:04:32.432Z,75.22
2019-02-16T05:07:01.573Z,75.22
2019-02-16T05:09:31.662Z,74.29
2019-02-16T05:12:00.840Z,74.61
2019-02-16T05:14:30.197Z,75.48
2019-02-16T05:16:59.429Z,75.60
2019-02-16T05:19:30.120Z,75.71
2019-02-16T05:22:00.554Z,75.55
2019-02-16T05:24:29.792Z,75.42
2019-02-16T05:26:59.028Z,75.53
2019-02-16T05:29:28.234Z,76.12
2019-02-16T05:31:58.442Z,75.62
2019-02-16T05:34:28.595Z,75.71
2019-02-16T05:36:57.844Z,75.72
2019-02-16T05:39:28.498Z,76.08
2019-02-16T05:41:57.905Z,76.68
2019-02-16T05:44:27.199Z,77.10
2019-02-16T05:46:59.262Z,76.03
2019-02-16T05:49:29.045Z,75.67
2019-02-16T05:51:58.264Z,75.66
2019-02-16T05:54:28.705Z,76.06
2019-02-16T05:56:59.553Z,75.85
2019-02-16T05:59:28.747Z,76.02
2019-02-16T06:01:58.945Z,76.80
2019-02-16T06:04:28.612Z,76.87
2019-02-16T06:06:58.207Z,76.33
2019-02-16T06:09:27.465Z,76.21
2019-02-16T06:11:56.550Z,76.45
